Grayville, Illinois
Current Conditions -  °F | °C
As of 4:35 PM on Monday 24 Nov 2014 (Local Time) from KCUL Reporting Station
Scattered Clouds Scattered Clouds  
Wind Chill: 42°   Ceiling: Unl
Heat Index: 45°   Visibility: 10mi
Dew Point: 37°   Wind: 7mph
Humidity: 72%   Direction: 270°W
Pressure: 29.83"   Gusts: NA
Location:  38.26°N, 88°W
Report Text: KCUL 242235Z AUTO 27006KT 10SM SCT060 07/03 A2983 RMK AO2 T00740027
Loading
Personal Weather Stations






























Interactive Weather Map New forecast layout! Learn more

10-Day Weather Forecast

Advertisements
Track Severe Weather on mobile